sensor_id;sensor_type;location;lat;lon;timestamp;P1;durP1;ratioP1;P2;durP2;ratioP2
62102;SDS011;48077;48.104;11.702;2023-06-10T00:00:53;16.00;;;8.55;;
62102;SDS011;48077;48.104;11.702;2023-06-10T00:07:40;10.80;;;7.95;;
62102;SDS011;48077;48.104;11.702;2023-06-10T00:10:05;12.15;;;9.60;;
62102;SDS011;48077;48.104;11.702;2023-06-10T00:12:29;11.98;;;8.27;;
62102;SDS011;48077;48.104;11.702;2023-06-10T00:14:54;14.48;;;9.45;;
62102;SDS011;48077;48.104;11.702;2023-06-10T00:17:17;13.27;;;9.20;;
62102;SDS011;48077;48.104;11.702;2023-06-10T00:19:41;12.32;;;7.78;;
62102;SDS011;48077;48.104;11.702;2023-06-10T00:22:04;9.88;;;8.05;;
62102;SDS011;48077;48.104;11.702;2023-06-10T00:24:28;10.95;;;7.88;;
62102;SDS011;48077;48.104;11.702;2023-06-10T00:26:54;11.90;;;7.88;;
62102;SDS011;48077;48.104;11.702;2023-06-10T00:29:18;11.95;;;8.38;;
62102;SDS011;48077;48.104;11.702;2023-06-10T00:31:43;12.10;;;8.15;;
62102;SDS011;48077;48.104;11.702;2023-06-10T00:34:07;10.73;;;7.80;;
62102;SDS011;48077;48.104;11.702;2023-06-10T00:36:31;9.15;;;7.28;;
62102;SDS011;48077;48.104;11.702;2023-06-10T00:38:54;11.18;;;7.68;;
62102;SDS011;48077;48.104;11.702;2023-06-10T00:41:18;14.65;;;9.93;;
62102;SDS011;48077;48.104;11.702;2023-06-10T00:43:41;9.93;;;7.68;;
62102;SDS011;48077;48.104;11.702;2023-06-10T00:46:05;11.63;;;7.93;;
62102;SDS011;48077;48.104;11.702;2023-06-10T00:48:28;10.45;;;7.90;;
62102;SDS011;48077;48.104;11.702;2023-06-10T00:50:52;11.32;;;8.32;;
62102;SDS011;48077;48.104;11.702;2023-06-10T00:53:15;9.85;;;7.05;;
62102;SDS011;48077;48.104;11.702;2023-06-10T00:55:40;9.52;;;7.15;;
62102;SDS011;48077;48.104;11.702;2023-06-10T00:58:04;10.20;;;7.50;;
62102;SDS011;48077;48.104;11.702;2023-06-10T01:00:27;9.80;;;7.38;;
62102;SDS011;48077;48.104;11.702;2023-06-10T01:02:50;14.07;;;9.30;;
62102;SDS011;48077;48.104;11.702;2023-06-10T01:05:15;8.90;;;7.28;;
62102;SDS011;48077;48.104;11.702;2023-06-10T01:07:50;8.07;;;7.10;;
62102;SDS011;48077;48.104;11.702;2023-06-10T01:12:53;9.10;;;6.57;;
62102;SDS011;48077;48.104;11.702;2023-06-10T01:15:22;8.85;;;7.38;;
62102;SDS011;48077;48.104;11.702;2023-06-10T01:17:55;8.25;;;6.95;;
62102;SDS011;48077;48.104;11.702;2023-06-10T01:20:21;12.13;;;8.23;;
62102;SDS011;48077;48.104;11.702;2023-06-10T01:22:44;9.13;;;6.75;;
62102;SDS011;48077;48.104;11.702;2023-06-10T01:25:08;10.57;;;8.95;;
62102;SDS011;48077;48.104;11.702;2023-06-10T01:27:32;9.85;;;7.65;;
62102;SDS011;48077;48.104;11.702;2023-06-10T01:30:11;12.80;;;7.63;;
62102;SDS011;48077;48.104;11.702;2023-06-10T01:32:43;11.25;;;7.95;;
62102;SDS011;48077;48.104;11.702;2023-06-10T01:35:08;10.45;;;7.32;;
62102;SDS011;48077;48.104;11.702;2023-06-10T01:37:32;9.68;;;7.65;;
62102;SDS011;48077;48.104;11.702;2023-06-10T01:39:57;11.55;;;9.18;;
62102;SDS011;48077;48.104;11.702;2023-06-10T01:42:26;8.57;;;7.13;;
62102;SDS011;48077;48.104;11.702;2023-06-10T01:44:51;11.60;;;8.57;;
62102;SDS011;48077;48.104;11.702;2023-06-10T01:47:14;9.30;;;7.90;;
62102;SDS011;48077;48.104;11.702;2023-06-10T01:49:38;9.75;;;7.68;;
62102;SDS011;48077;48.104;11.702;2023-06-10T01:52:01;14.10;;;9.68;;
62102;SDS011;48077;48.104;11.702;2023-06-10T01:54:24;12.10;;;9.77;;
62102;SDS011;48077;48.104;11.702;2023-06-10T01:56:48;13.45;;;9.85;;
62102;SDS011;48077;48.104;11.702;2023-06-10T01:59:11;11.25;;;8.60;;
62102;SDS011;48077;48.104;11.702;2023-06-10T02:01:35;10.95;;;8.02;;
62102;SDS011;48077;48.104;11.702;2023-06-10T02:03:58;12.85;;;10.05;;
62102;SDS011;48077;48.104;11.702;2023-06-10T02:06:21;10.20;;;8.48;;
62102;SDS011;48077;48.104;11.702;2023-06-10T02:08:45;9.50;;;7.63;;
62102;SDS011;48077;48.104;11.702;2023-06-10T02:11:08;11.68;;;8.63;;
62102;SDS011;48077;48.104;11.702;2023-06-10T02:13:31;10.77;;;8.52;;
62102;SDS011;48077;48.104;11.702;2023-06-10T02:15:55;11.60;;;9.93;;
62102;SDS011;48077;48.104;11.702;2023-06-10T02:18:18;12.80;;;9.23;;
62102;SDS011;48077;48.104;11.702;2023-06-10T02:20:43;10.93;;;9.15;;
62102;SDS011;48077;48.104;11.702;2023-06-10T02:23:06;11.98;;;9.30;;
62102;SDS011;48077;48.104;11.702;2023-06-10T02:25:30;12.82;;;9.32;;
62102;SDS011;48077;48.104;11.702;2023-06-10T02:27:53;10.82;;;9.02;;
62102;SDS011;48077;48.104;11.702;2023-06-10T02:30:17;9.57;;;8.10;;
62102;SDS011;48077;48.104;11.702;2023-06-10T02:32:40;13.02;;;10.77;;
62102;SDS011;48077;48.104;11.702;2023-06-10T02:35:04;11.82;;;10.57;;
62102;SDS011;48077;48.104;11.702;2023-06-10T02:37:28;12.35;;;10.05;;
62102;SDS011;48077;48.104;11.702;2023-06-10T02:39:51;12.80;;;10.45;;
62102;SDS011;48077;48.104;11.702;2023-06-10T02:42:15;9.95;;;8.70;;
62102;SDS011;48077;48.104;11.702;2023-06-10T02:44:38;11.50;;;9.40;;
62102;SDS011;48077;48.104;11.702;2023-06-10T02:47:01;15.40;;;10.73;;
62102;SDS011;48077;48.104;11.702;2023-06-10T02:49:25;10.32;;;8.75;;
62102;SDS011;48077;48.104;11.702;2023-06-10T02:51:50;9.63;;;8.10;;
62102;SDS011;48077;48.104;11.702;2023-06-10T02:54:16;12.07;;;10.43;;
62102;SDS011;48077;48.104;11.702;2023-06-10T02:56:40;10.07;;;9.05;;
62102;SDS011;48077;48.104;11.702;2023-06-10T02:59:04;10.63;;;8.88;;
62102;SDS011;48077;48.104;11.702;2023-06-10T03:01:30;10.73;;;8.88;;
62102;SDS011;48077;48.104;11.702;2023-06-10T03:03:54;13.55;;;10.80;;
62102;SDS011;48077;48.104;11.702;2023-06-10T03:06:19;13.00;;;11.00;;
62102;SDS011;48077;48.104;11.702;2023-06-10T03:08:42;13.20;;;9.50;;
62102;SDS011;48077;48.104;11.702;2023-06-10T03:11:06;12.15;;;10.85;;
62102;SDS011;48077;48.104;11.702;2023-06-10T03:13:29;12.32;;;10.48;;
62102;SDS011;48077;48.104;11.702;2023-06-10T03:15:53;11.38;;;10.05;;
62102;SDS011;48077;48.104;11.702;2023-06-10T03:18:16;16.77;;;12.32;;
62102;SDS011;48077;48.104;11.702;2023-06-10T03:20:39;11.70;;;10.40;;
62102;SDS011;48077;48.104;11.702;2023-06-10T03:23:06;12.07;;;10.27;;
62102;SDS011;48077;48.104;11.702;2023-06-10T03:25:30;11.25;;;10.15;;
62102;SDS011;48077;48.104;11.702;2023-06-10T03:27:53;11.98;;;9.45;;
62102;SDS011;48077;48.104;11.702;2023-06-10T03:30:17;11.68;;;9.07;;
62102;SDS011;48077;48.104;11.702;2023-06-10T03:32:40;14.13;;;12.02;;
62102;SDS011;48077;48.104;11.702;2023-06-10T03:35:04;11.27;;;10.18;;
62102;SDS011;48077;48.104;11.702;2023-06-10T03:37:27;11.85;;;9.60;;
62102;SDS011;48077;48.104;11.702;2023-06-10T03:39:51;14.40;;;12.85;;
62102;SDS011;48077;48.104;11.702;2023-06-10T03:42:14;11.27;;;10.10;;
62102;SDS011;48077;48.104;11.702;2023-06-10T03:44:37;14.18;;;11.75;;
62102;SDS011;48077;48.104;11.702;2023-06-10T03:47:01;14.07;;;11.93;;
62102;SDS011;48077;48.104;11.702;2023-06-10T03:49:24;12.13;;;10.45;;
62102;SDS011;48077;48.104;11.702;2023-06-10T03:51:49;12.43;;;11.07;;
62102;SDS011;48077;48.104;11.702;2023-06-10T03:54:13;12.93;;;10.40;;
62102;SDS011;48077;48.104;11.702;2023-06-10T03:56:36;13.40;;;12.02;;
62102;SDS011;48077;48.104;11.702;2023-06-10T03:58:59;11.48;;;10.25;;
62102;SDS011;48077;48.104;11.702;2023-06-10T04:01:23;12.15;;;11.00;;
62102;SDS011;48077;48.104;11.702;2023-06-10T04:03:47;11.68;;;10.43;;
62102;SDS011;48077;48.104;11.702;2023-06-10T04:06:11;12.93;;;9.98;;
62102;SDS011;48077;48.104;11.702;2023-06-10T04:08:35;12.20;;;11.05;;
62102;SDS011;48077;48.104;11.702;2023-06-10T04:10:59;11.82;;;10.13;;
62102;SDS011;48077;48.104;11.702;2023-06-10T04:13:22;10.05;;;9.05;;
62102;SDS011;48077;48.104;11.702;2023-06-10T04:15:46;10.68;;;9.57;;
62102;SDS011;48077;48.104;11.702;2023-06-10T04:18:09;11.07;;;9.98;;
62102;SDS011;48077;48.104;11.702;2023-06-10T04:20:32;10.80;;;9.68;;
62102;SDS011;48077;48.104;11.702;2023-06-10T04:22:56;13.50;;;11.50;;
62102;SDS011;48077;48.104;11.702;2023-06-10T04:25:19;12.45;;;9.98;;
62102;SDS011;48077;48.104;11.702;2023-06-10T04:27:43;12.85;;;10.52;;
62102;SDS011;48077;48.104;11.702;2023-06-10T04:30:07;14.75;;;10.43;;
62102;SDS011;48077;48.104;11.702;2023-06-10T04:32:30;13.35;;;10.02;;
62102;SDS011;48077;48.104;11.702;2023-06-10T04:34:53;10.52;;;9.43;;
62102;SDS011;48077;48.104;11.702;2023-06-10T04:37:17;12.45;;;10.07;;
62102;SDS011;48077;48.104;11.702;2023-06-10T04:39:41;11.82;;;10.32;;
62102;SDS011;48077;48.104;11.702;2023-06-10T04:42:04;13.18;;;10.25;;
62102;SDS011;48077;48.104;11.702;2023-06-10T04:44:28;12.85;;;11.35;;
62102;SDS011;48077;48.104;11.702;2023-06-10T04:46:53;13.93;;;9.93;;
62102;SDS011;48077;48.104;11.702;2023-06-10T04:49:18;10.65;;;8.80;;
62102;SDS011;48077;48.104;11.702;2023-06-10T04:51:42;9.63;;;8.65;;
62102;SDS011;48077;48.104;11.702;2023-06-10T04:54:05;12.52;;;9.82;;
62102;SDS011;48077;48.104;11.702;2023-06-10T04:56:29;11.30;;;9.52;;
62102;SDS011;48077;48.104;11.702;2023-06-10T04:58:53;9.68;;;8.57;;
62102;SDS011;48077;48.104;11.702;2023-06-10T05:01:16;11.35;;;9.55;;
62102;SDS011;48077;48.104;11.702;2023-06-10T05:03:39;10.48;;;8.57;;
62102;SDS011;48077;48.104;11.702;2023-06-10T05:06:05;10.90;;;8.48;;
62102;SDS011;48077;48.104;11.702;2023-06-10T05:08:28;12.18;;;9.70;;
62102;SDS011;48077;48.104;11.702;2023-06-10T05:10:52;12.70;;;10.30;;
62102;SDS011;48077;48.104;11.702;2023-06-10T05:13:16;11.68;;;8.57;;
62102;SDS011;48077;48.104;11.702;2023-06-10T05:15:39;12.60;;;8.65;;
62102;SDS011;48077;48.104;11.702;2023-06-10T05:18:07;10.77;;;8.68;;
62102;SDS011;48077;48.104;11.702;2023-06-10T05:20:30;13.95;;;9.15;;
62102;SDS011;48077;48.104;11.702;2023-06-10T05:22:54;13.85;;;9.07;;
62102;SDS011;48077;48.104;11.702;2023-06-10T05:25:17;14.98;;;10.27;;
62102;SDS011;48077;48.104;11.702;2023-06-10T05:27:41;12.98;;;9.40;;
62102;SDS011;48077;48.104;11.702;2023-06-10T05:30:05;10.02;;;8.68;;
62102;SDS011;48077;48.104;11.702;2023-06-10T05:32:30;12.90;;;9.93;;
62102;SDS011;48077;48.104;11.702;2023-06-10T05:34:53;14.45;;;10.68;;
62102;SDS011;48077;48.104;11.702;2023-06-10T05:37:17;13.02;;;10.00;;
62102;SDS011;48077;48.104;11.702;2023-06-10T05:39:40;10.80;;;8.95;;
62102;SDS011;48077;48.104;11.702;2023-06-10T05:42:05;10.57;;;8.30;;
62102;SDS011;48077;48.104;11.702;2023-06-10T05:44:29;10.82;;;8.60;;
62102;SDS011;48077;48.104;11.702;2023-06-10T05:46:53;14.82;;;11.10;;
62102;SDS011;48077;48.104;11.702;2023-06-10T05:49:16;12.02;;;9.73;;
62102;SDS011;48077;48.104;11.702;2023-06-10T05:51:39;14.30;;;10.82;;
62102;SDS011;48077;48.104;11.702;2023-06-10T05:54:03;15.65;;;11.85;;
62102;SDS011;48077;48.104;11.702;2023-06-10T05:56:26;12.20;;;9.45;;
62102;SDS011;48077;48.104;11.702;2023-06-10T05:58:49;13.48;;;10.52;;
62102;SDS011;48077;48.104;11.702;2023-06-10T06:01:13;15.35;;;10.57;;
62102;SDS011;48077;48.104;11.702;2023-06-10T06:03:37;14.80;;;9.98;;
62102;SDS011;48077;48.104;11.702;2023-06-10T06:06:00;14.63;;;8.77;;
62102;SDS011;48077;48.104;11.702;2023-06-10T06:08:23;11.00;;;8.65;;
62102;SDS011;48077;48.104;11.702;2023-06-10T06:10:47;11.45;;;8.90;;
62102;SDS011;48077;48.104;11.702;2023-06-10T06:13:10;23.02;;;11.63;;
62102;SDS011;48077;48.104;11.702;2023-06-10T06:15:34;13.65;;;10.68;;
62102;SDS011;48077;48.104;11.702;2023-06-10T06:17:57;17.17;;;9.52;;
62102;SDS011;48077;48.104;11.702;2023-06-10T06:20:21;13.98;;;10.57;;
62102;SDS011;48077;48.104;11.702;2023-06-10T06:22:45;9.55;;;8.32;;
62102;SDS011;48077;48.104;11.702;2023-06-10T06:25:09;16.30;;;9.52;;
62102;SDS011;48077;48.104;11.702;2023-06-10T06:27:32;12.40;;;8.23;;
62102;SDS011;48077;48.104;11.702;2023-06-10T06:29:55;14.75;;;8.80;;
62102;SDS011;48077;48.104;11.702;2023-06-10T06:32:19;11.25;;;8.00;;
62102;SDS011;48077;48.104;11.702;2023-06-10T06:34:42;12.70;;;9.85;;
62102;SDS011;48077;48.104;11.702;2023-06-10T06:37:06;15.30;;;10.23;;
62102;SDS011;48077;48.104;11.702;2023-06-10T06:39:29;11.68;;;9.02;;
62102;SDS011;48077;48.104;11.702;2023-06-10T06:41:53;11.70;;;7.78;;
62102;SDS011;48077;48.104;11.702;2023-06-10T06:44:16;12.75;;;9.20;;
62102;SDS011;48077;48.104;11.702;2023-06-10T06:46:39;12.85;;;8.93;;
62102;SDS011;48077;48.104;11.702;2023-06-10T06:49:03;10.18;;;7.85;;
62102;SDS011;48077;48.104;11.702;2023-06-10T06:51:26;10.23;;;7.78;;
62102;SDS011;48077;48.104;11.702;2023-06-10T06:53:50;11.02;;;9.05;;
62102;SDS011;48077;48.104;11.702;2023-06-10T06:56:14;12.27;;;8.65;;
62102;SDS011;48077;48.104;11.702;2023-06-10T06:58:37;10.15;;;7.63;;
62102;SDS011;48077;48.104;11.702;2023-06-10T07:01:01;12.52;;;6.97;;
62102;SDS011;48077;48.104;11.702;2023-06-10T07:03:24;12.27;;;9.30;;
62102;SDS011;48077;48.104;11.702;2023-06-10T07:05:47;10.32;;;7.68;;
62102;SDS011;48077;48.104;11.702;2023-06-10T07:08:11;10.23;;;8.13;;
62102;SDS011;48077;48.104;11.702;2023-06-10T07:10:35;8.88;;;6.72;;
62102;SDS011;48077;48.104;11.702;2023-06-10T07:12:58;11.10;;;7.35;;
62102;SDS011;48077;48.104;11.702;2023-06-10T07:15:24;9.55;;;8.23;;
62102;SDS011;48077;48.104;11.702;2023-06-10T07:17:47;13.85;;;8.20;;
62102;SDS011;48077;48.104;11.702;2023-06-10T07:20:10;8.43;;;7.28;;
62102;SDS011;48077;48.104;11.702;2023-06-10T07:22:34;11.35;;;8.27;;
62102;SDS011;48077;48.104;11.702;2023-06-10T07:24:58;10.07;;;7.47;;
62102;SDS011;48077;48.104;11.702;2023-06-10T07:27:21;9.20;;;7.20;;
62102;SDS011;48077;48.104;11.702;2023-06-10T07:29:44;10.82;;;8.32;;
62102;SDS011;48077;48.104;11.702;2023-06-10T07:32:08;10.48;;;7.50;;
62102;SDS011;48077;48.104;11.702;2023-06-10T07:34:31;11.68;;;8.68;;
62102;SDS011;48077;48.104;11.702;2023-06-10T07:36:55;9.43;;;7.03;;
62102;SDS011;48077;48.104;11.702;2023-06-10T07:39:20;10.20;;;6.40;;
62102;SDS011;48077;48.104;11.702;2023-06-10T07:41:44;9.75;;;6.95;;
62102;SDS011;48077;48.104;11.702;2023-06-10T07:44:07;7.20;;;6.00;;
62102;SDS011;48077;48.104;11.702;2023-06-10T07:46:30;9.50;;;7.10;;
62102;SDS011;48077;48.104;11.702;2023-06-10T07:48:54;10.05;;;7.10;;
62102;SDS011;48077;48.104;11.702;2023-06-10T07:51:17;10.40;;;7.10;;
62102;SDS011;48077;48.104;11.702;2023-06-10T07:53:41;8.18;;;5.88;;
62102;SDS011;48077;48.104;11.702;2023-06-10T07:56:04;9.13;;;6.38;;
62102;SDS011;48077;48.104;11.702;2023-06-10T07:58:28;10.63;;;6.35;;
62102;SDS011;48077;48.104;11.702;2023-06-10T08:00:51;7.40;;;5.60;;
62102;SDS011;48077;48.104;11.702;2023-06-10T08:03:14;10.73;;;6.30;;
62102;SDS011;48077;48.104;11.702;2023-06-10T08:05:39;7.78;;;5.35;;
62102;SDS011;48077;48.104;11.702;2023-06-10T08:08:03;8.30;;;5.70;;
62102;SDS011;48077;48.104;11.702;2023-06-10T08:10:26;8.93;;;5.60;;
62102;SDS011;48077;48.104;11.702;2023-06-10T08:12:49;8.02;;;5.57;;
62102;SDS011;48077;48.104;11.702;2023-06-10T08:15:13;10.50;;;5.85;;
62102;SDS011;48077;48.104;11.702;2023-06-10T08:17:37;5.20;;;4.38;;
62102;SDS011;48077;48.104;11.702;2023-06-10T08:20:01;7.53;;;5.55;;
62102;SDS011;48077;48.104;11.702;2023-06-10T08:22:24;9.02;;;5.22;;
62102;SDS011;48077;48.104;11.702;2023-06-10T08:24:47;8.27;;;5.30;;
62102;SDS011;48077;48.104;11.702;2023-06-10T08:27:11;8.20;;;5.57;;
62102;SDS011;48077;48.104;11.702;2023-06-10T08:29:34;6.65;;;5.88;;
62102;SDS011;48077;48.104;11.702;2023-06-10T08:31:57;6.50;;;4.90;;
62102;SDS011;48077;48.104;11.702;2023-06-10T08:34:21;7.65;;;5.13;;
62102;SDS011;48077;48.104;11.702;2023-06-10T08:36:44;7.75;;;5.28;;
62102;SDS011;48077;48.104;11.702;2023-06-10T08:39:08;8.25;;;5.50;;
62102;SDS011;48077;48.104;11.702;2023-06-10T08:41:34;8.38;;;5.60;;
62102;SDS011;48077;48.104;11.702;2023-06-10T08:44:04;5.43;;;4.50;;
62102;SDS011;48077;48.104;11.702;2023-06-10T08:46:37;7.88;;;4.70;;
62102;SDS011;48077;48.104;11.702;2023-06-10T08:49:06;5.57;;;4.45;;
62102;SDS011;48077;48.104;11.702;2023-06-10T08:51:31;5.50;;;4.13;;
62102;SDS011;48077;48.104;11.702;2023-06-10T08:54:04;7.40;;;4.60;;
62102;SDS011;48077;48.104;11.702;2023-06-10T08:56:32;5.90;;;4.55;;
62102;SDS011;48077;48.104;11.702;2023-06-10T08:59:01;7.72;;;4.90;;
62102;SDS011;48077;48.104;11.702;2023-06-10T09:01:25;6.40;;;4.75;;
62102;SDS011;48077;48.104;11.702;2023-06-10T09:03:49;8.40;;;4.75;;
62102;SDS011;48077;48.104;11.702;2023-06-10T09:06:12;6.50;;;4.75;;
62102;SDS011;48077;48.104;11.702;2023-06-10T09:08:36;5.93;;;4.63;;
62102;SDS011;48077;48.104;11.702;2023-06-10T09:11:00;5.70;;;4.60;;
62102;SDS011;48077;48.104;11.702;2023-06-10T09:13:24;7.45;;;4.32;;
62102;SDS011;48077;48.104;11.702;2023-06-10T09:15:47;6.22;;;4.20;;
62102;SDS011;48077;48.104;11.702;2023-06-10T09:18:12;5.22;;;4.35;;
62102;SDS011;48077;48.104;11.702;2023-06-10T09:20:35;3.47;;;3.17;;
62102;SDS011;48077;48.104;11.702;2023-06-10T09:22:59;4.97;;;4.07;;
62102;SDS011;48077;48.104;11.702;2023-06-10T09:25:34;5.82;;;4.45;;
62102;SDS011;48077;48.104;11.702;2023-06-10T09:27:59;9.55;;;4.85;;
62102;SDS011;48077;48.104;11.702;2023-06-10T09:30:32;6.20;;;4.45;;
62102;SDS011;48077;48.104;11.702;2023-06-10T09:33:02;9.05;;;4.45;;
62102;SDS011;48077;48.104;11.702;2023-06-10T09:35:32;7.10;;;5.05;;
62102;SDS011;48077;48.104;11.702;2023-06-10T09:37:58;7.35;;;5.30;;
62102;SDS011;48077;48.104;11.702;2023-06-10T09:40:28;8.00;;;5.00;;
62102;SDS011;48077;48.104;11.702;2023-06-10T09:42:58;9.23;;;6.03;;
62102;SDS011;48077;48.104;11.702;2023-06-10T09:45:23;8.55;;;5.90;;
62102;SDS011;48077;48.104;11.702;2023-06-10T09:47:53;9.00;;;5.30;;
62102;SDS011;48077;48.104;11.702;2023-06-10T09:50:17;7.63;;;5.13;;
62102;SDS011;48077;48.104;11.702;2023-06-10T09:52:40;6.68;;;5.20;;
62102;SDS011;48077;48.104;11.702;2023-06-10T09:55:04;7.55;;;5.47;;
62102;SDS011;48077;48.104;11.702;2023-06-10T09:57:31;8.38;;;5.93;;
62102;SDS011;48077;48.104;11.702;2023-06-10T09:59:56;10.15;;;5.70;;
62102;SDS011;48077;48.104;11.702;2023-06-10T10:02:19;6.80;;;5.43;;
62102;SDS011;48077;48.104;11.702;2023-06-10T10:04:43;6.72;;;4.95;;
62102;SDS011;48077;48.104;11.702;2023-06-10T10:07:07;8.38;;;5.35;;
62102;SDS011;48077;48.104;11.702;2023-06-10T10:09:32;8.65;;;5.10;;
62102;SDS011;48077;48.104;11.702;2023-06-10T10:11:56;6.75;;;4.70;;
62102;SDS011;48077;48.104;11.702;2023-06-10T10:14:20;7.53;;;5.13;;
62102;SDS011;48077;48.104;11.702;2023-06-10T10:16:45;7.18;;;4.85;;
62102;SDS011;48077;48.104;11.702;2023-06-10T10:19:11;7.43;;;4.75;;
62102;SDS011;48077;48.104;11.702;2023-06-10T10:21:53;7.25;;;5.28;;
62102;SDS011;48077;48.104;11.702;2023-06-10T10:24:21;6.47;;;4.18;;
62102;SDS011;48077;48.104;11.702;2023-06-10T10:26:46;9.60;;;5.05;;
62102;SDS011;48077;48.104;11.702;2023-06-10T10:29:16;6.18;;;4.38;;
62102;SDS011;48077;48.104;11.702;2023-06-10T10:31:46;7.72;;;4.65;;
62102;SDS011;48077;48.104;11.702;2023-06-10T10:34:16;7.45;;;5.07;;
62102;SDS011;48077;48.104;11.702;2023-06-10T10:36:45;7.38;;;4.72;;
62102;SDS011;48077;48.104;11.702;2023-06-10T10:39:09;7.45;;;4.90;;
62102;SDS011;48077;48.104;11.702;2023-06-10T10:41:33;6.50;;;4.53;;
62102;SDS011;48077;48.104;11.702;2023-06-10T10:43:58;6.47;;;4.90;;
62102;SDS011;48077;48.104;11.702;2023-06-10T10:46:22;5.85;;;4.22;;
62102;SDS011;48077;48.104;11.702;2023-06-10T10:48:47;5.43;;;4.05;;
62102;SDS011;48077;48.104;11.702;2023-06-10T10:51:15;8.13;;;5.22;;
62102;SDS011;48077;48.104;11.702;2023-06-10T10:53:39;7.53;;;5.03;;
62102;SDS011;48077;48.104;11.702;2023-06-10T10:56:15;6.25;;;4.25;;
62102;SDS011;48077;48.104;11.702;2023-06-10T10:58:43;7.70;;;4.57;;
62102;SDS011;48077;48.104;11.702;2023-06-10T11:01:26;5.32;;;4.15;;
62102;SDS011;48077;48.104;11.702;2023-06-10T11:04:06;8.00;;;4.45;;
62102;SDS011;48077;48.104;11.702;2023-06-10T11:06:30;6.18;;;4.00;;
62102;SDS011;48077;48.104;11.702;2023-06-10T11:08:53;5.93;;;4.00;;
62102;SDS011;48077;48.104;11.702;2023-06-10T11:11:17;5.95;;;4.60;;
62102;SDS011;48077;48.104;11.702;2023-06-10T11:16:28;6.60;;;4.45;;
62102;SDS011;48077;48.104;11.702;2023-06-10T11:18:55;7.20;;;4.32;;
62102;SDS011;48077;48.104;11.702;2023-06-10T11:21:22;5.95;;;3.85;;
62102;SDS011;48077;48.104;11.702;2023-06-10T11:23:47;7.18;;;4.40;;
62102;SDS011;48077;48.104;11.702;2023-06-10T11:31:18;5.70;;;3.72;;
62102;SDS011;48077;48.104;11.702;2023-06-10T11:34:05;8.93;;;4.97;;
62102;SDS011;48077;48.104;11.702;2023-06-10T11:36:29;7.18;;;3.92;;
62102;SDS011;48077;48.104;11.702;2023-06-10T11:39:00;6.13;;;3.72;;
62102;SDS011;48077;48.104;11.702;2023-06-10T11:41:26;6.75;;;3.67;;
62102;SDS011;48077;48.104;11.702;2023-06-10T11:43:52;6.93;;;3.65;;
62102;SDS011;48077;48.104;11.702;2023-06-10T11:46:19;6.33;;;3.60;;
62102;SDS011;48077;48.104;11.702;2023-06-10T11:48:52;5.20;;;3.53;;
62102;SDS011;48077;48.104;11.702;2023-06-10T11:51:17;5.65;;;3.50;;
62102;SDS011;48077;48.104;11.702;2023-06-10T11:53:40;5.13;;;3.70;;
62102;SDS011;48077;48.104;11.702;2023-06-10T11:56:07;5.00;;;3.28;;
62102;SDS011;48077;48.104;11.702;2023-06-10T11:58:30;5.05;;;3.15;;
62102;SDS011;48077;48.104;11.702;2023-06-10T12:00:54;5.22;;;3.60;;
62102;SDS011;48077;48.104;11.702;2023-06-10T12:03:24;5.68;;;3.65;;
62102;SDS011;48077;48.104;11.702;2023-06-10T12:08:20;7.13;;;3.50;;
62102;SDS011;48077;48.104;11.702;2023-06-10T12:10:44;6.07;;;3.67;;
62102;SDS011;48077;48.104;11.702;2023-06-10T12:13:08;5.65;;;3.47;;
62102;SDS011;48077;48.104;11.702;2023-06-10T12:15:32;4.90;;;3.70;;
62102;SDS011;48077;48.104;11.702;2023-06-10T12:17:56;5.95;;;3.58;;
62102;SDS011;48077;48.104;11.702;2023-06-10T12:20:26;6.22;;;3.30;;
62102;SDS011;48077;48.104;11.702;2023-06-10T12:22:51;6.35;;;3.42;;
62102;SDS011;48077;48.104;11.702;2023-06-10T12:25:14;6.38;;;3.60;;
62102;SDS011;48077;48.104;11.702;2023-06-10T12:27:38;6.05;;;3.42;;
62102;SDS011;48077;48.104;11.702;2023-06-10T12:30:04;4.40;;;2.83;;
62102;SDS011;48077;48.104;11.702;2023-06-10T12:32:35;5.95;;;3.40;;
62102;SDS011;48077;48.104;11.702;2023-06-10T12:35:02;5.88;;;3.47;;
62102;SDS011;48077;48.104;11.702;2023-06-10T12:37:27;5.15;;;3.65;;
62102;SDS011;48077;48.104;11.702;2023-06-10T12:39:51;6.53;;;3.90;;
62102;SDS011;48077;48.104;11.702;2023-06-10T12:42:21;7.03;;;4.10;;
62102;SDS011;48077;48.104;11.702;2023-06-10T12:44:52;7.57;;;4.57;;
62102;SDS011;48077;48.104;11.702;2023-06-10T12:47:16;8.05;;;4.80;;
62102;SDS011;48077;48.104;11.702;2023-06-10T12:49:42;5.93;;;3.80;;
62102;SDS011;48077;48.104;11.702;2023-06-10T12:52:05;5.80;;;4.30;;
62102;SDS011;48077;48.104;11.702;2023-06-10T12:54:29;5.40;;;4.10;;
62102;SDS011;48077;48.104;11.702;2023-06-10T12:56:53;7.20;;;4.50;;
62102;SDS011;48077;48.104;11.702;2023-06-10T12:59:16;7.65;;;5.05;;
62102;SDS011;48077;48.104;11.702;2023-06-10T13:01:39;7.28;;;4.90;;
62102;SDS011;48077;48.104;11.702;2023-06-10T13:04:04;7.65;;;5.07;;
62102;SDS011;48077;48.104;11.702;2023-06-10T13:06:29;7.40;;;5.05;;
62102;SDS011;48077;48.104;11.702;2023-06-10T13:08:54;7.35;;;4.82;;
62102;SDS011;48077;48.104;11.702;2023-06-10T13:11:18;7.28;;;5.10;;
62102;SDS011;48077;48.104;11.702;2023-06-10T13:13:41;8.10;;;5.03;;
62102;SDS011;48077;48.104;11.702;2023-06-10T13:16:05;8.57;;;4.60;;
62102;SDS011;48077;48.104;11.702;2023-06-10T13:18:28;8.27;;;4.65;;
62102;SDS011;48077;48.104;11.702;2023-06-10T13:20:51;7.78;;;5.13;;
62102;SDS011;48077;48.104;11.702;2023-06-10T13:23:15;9.13;;;5.03;;
62102;SDS011;48077;48.104;11.702;2023-06-10T13:25:38;6.75;;;4.55;;
62102;SDS011;48077;48.104;11.702;2023-06-10T13:28:03;7.75;;;4.53;;
62102;SDS011;48077;48.104;11.702;2023-06-10T13:30:26;6.10;;;4.22;;
62102;SDS011;48077;48.104;11.702;2023-06-10T13:32:50;5.85;;;4.32;;
62102;SDS011;48077;48.104;11.702;2023-06-10T13:35:13;4.90;;;4.07;;
62102;SDS011;48077;48.104;11.702;2023-06-10T13:37:37;6.90;;;4.13;;
62102;SDS011;48077;48.104;11.702;2023-06-10T13:40:03;6.38;;;3.47;;
62102;SDS011;48077;48.104;11.702;2023-06-10T13:42:27;7.22;;;4.10;;
62102;SDS011;48077;48.104;11.702;2023-06-10T13:44:52;8.27;;;4.43;;
62102;SDS011;48077;48.104;11.702;2023-06-10T13:47:15;6.68;;;4.15;;
62102;SDS011;48077;48.104;11.702;2023-06-10T13:49:38;6.80;;;4.00;;
62102;SDS011;48077;48.104;11.702;2023-06-10T13:52:03;5.80;;;3.70;;
62102;SDS011;48077;48.104;11.702;2023-06-10T13:54:26;6.32;;;4.00;;
62102;SDS011;48077;48.104;11.702;2023-06-10T13:56:50;4.90;;;3.97;;
62102;SDS011;48077;48.104;11.702;2023-06-10T13:59:13;5.55;;;4.10;;
62102;SDS011;48077;48.104;11.702;2023-06-10T14:01:37;5.45;;;4.05;;
62102;SDS011;48077;48.104;11.702;2023-06-10T14:04:00;7.03;;;4.72;;
62102;SDS011;48077;48.104;11.702;2023-06-10T14:06:24;6.35;;;4.32;;
62102;SDS011;48077;48.104;11.702;2023-06-10T14:08:47;6.68;;;4.28;;
62102;SDS011;48077;48.104;11.702;2023-06-10T14:11:10;6.70;;;4.43;;
62102;SDS011;48077;48.104;11.702;2023-06-10T14:13:34;5.65;;;4.15;;
62102;SDS011;48077;48.104;11.702;2023-06-10T14:15:57;6.22;;;4.50;;
62102;SDS011;48077;48.104;11.702;2023-06-10T14:18:25;5.25;;;4.35;;
62102;SDS011;48077;48.104;11.702;2023-06-10T14:20:48;6.03;;;4.05;;
62102;SDS011;48077;48.104;11.702;2023-06-10T14:23:12;5.70;;;4.10;;
62102;SDS011;48077;48.104;11.702;2023-06-10T14:25:35;5.68;;;3.78;;
62102;SDS011;48077;48.104;11.702;2023-06-10T14:27:59;5.93;;;4.35;;